createdAt,value
2022-10-06T00:01:18.661Z,11.80
2022-10-06T00:03:47.382Z,14.80
2022-10-06T00:06:18.097Z,14.90
2022-10-06T00:08:47.080Z,12.00
2022-10-06T00:11:17.272Z,8.70
2022-10-06T00:13:45.781Z,10.30
2022-10-06T00:16:21.674Z,16.00
2022-10-06T00:18:50.167Z,10.20
2022-10-06T00:21:18.279Z,13.60
2022-10-06T00:23:46.367Z,12.60
2022-10-06T00:26:16.882Z,11.50
2022-10-06T00:28:50.284Z,11.00
2022-10-06T00:31:19.766Z,16.70
2022-10-06T00:33:50.331Z,10.20
2022-10-06T00:36:18.692Z,11.00
2022-10-06T00:38:47.087Z,15.70
2022-10-06T00:41:17.911Z,11.80
2022-10-06T00:43:58.224Z,11.30
2022-10-06T00:46:52.358Z,9.60
2022-10-06T00:49:38.303Z,10.20
2022-10-06T00:52:11.663Z,11.10
2022-10-06T00:54:41.382Z,14.40
2022-10-06T00:57:11.587Z,12.90
2022-10-06T00:59:40.908Z,9.80
2022-10-06T01:02:39.539Z,8.70
2022-10-06T01:05:12.007Z,14.10
2022-10-06T01:07:40.192Z,13.70
2022-10-06T01:10:08.676Z,9.20
2022-10-06T01:12:37.215Z,13.90
2022-10-06T01:15:06.137Z,10.30
2022-10-06T01:17:42.250Z,12.40
2022-10-06T01:20:15.267Z,11.60
2022-10-06T01:23:02.095Z,9.70
2022-10-06T01:25:31.002Z,12.90
2022-10-06T01:28:01.115Z,12.70
2022-10-06T01:30:36.906Z,8.40
2022-10-06T01:33:05.799Z,17.20
2022-10-06T01:35:34.660Z,8.40
2022-10-06T01:38:02.608Z,9.90
2022-10-06T01:40:31.445Z,13.40
2022-10-06T01:43:01.891Z,8.50
2022-10-06T01:45:30.132Z,9.50
2022-10-06T01:47:58.069Z,12.80
2022-10-06T01:50:26.103Z,10.20
2022-10-06T01:52:56.027Z,11.40
2022-10-06T01:55:25.428Z,12.70
2022-10-06T01:57:54.044Z,11.60
2022-10-06T02:00:23.073Z,8.30
2022-10-06T02:02:50.944Z,11.10
2022-10-06T02:05:18.855Z,8.50
2022-10-06T02:07:49.655Z,13.20
2022-10-06T02:10:18.104Z,8.30
2022-10-06T02:12:53.499Z,6.80
2022-10-06T02:15:23.303Z,10.60
2022-10-06T02:17:53.953Z,9.40
2022-10-06T02:20:27.882Z,9.60
2022-10-06T02:22:56.152Z,6.10
2022-10-06T02:25:24.370Z,8.50
2022-10-06T02:27:55.295Z,8.90
2022-10-06T02:30:23.426Z,7.30
2022-10-06T02:32:51.511Z,8.80
2022-10-06T02:35:21.056Z,9.40
2022-10-06T02:37:49.280Z,12.30
2022-10-06T02:40:19.251Z,9.50
2022-10-06T02:42:47.938Z,11.20
2022-10-06T02:45:18.445Z,8.00
2022-10-06T02:47:46.591Z,11.00
2022-10-06T02:50:14.591Z,11.70
2022-10-06T02:52:43.006Z,12.40
2022-10-06T02:55:12.210Z,12.30
2022-10-06T02:57:40.207Z,11.50
2022-10-06T03:00:10.568Z,11.40
2022-10-06T03:02:38.700Z,6.60
2022-10-06T03:05:07.442Z,12.00
2022-10-06T03:07:35.467Z,14.00
2022-10-06T03:10:03.994Z,14.20
2022-10-06T03:12:33.631Z,9.40
2022-10-06T03:15:01.802Z,9.60
2022-10-06T03:17:29.874Z,14.40
2022-10-06T03:19:58.083Z,10.20
2022-10-06T03:22:26.247Z,6.10
2022-10-06T03:24:56.167Z,10.60
2022-10-06T03:27:24.481Z,9.30
2022-10-06T03:29:54.385Z,11.70
2022-10-06T03:32:24.168Z,11.50
2022-10-06T03:34:55.447Z,9.30
2022-10-06T03:37:23.514Z,11.60
2022-10-06T03:39:51.792Z,15.80
2022-10-06T03:42:19.817Z,12.30
2022-10-06T03:44:47.907Z,12.50
2022-10-06T03:47:17.482Z,8.10
2022-10-06T03:49:45.869Z,12.40
2022-10-06T03:52:14.087Z,10.20
2022-10-06T03:54:42.303Z,12.60
2022-10-06T03:57:10.163Z,9.40
2022-10-06T03:59:38.696Z,14.50
2022-10-06T04:02:07.165Z,10.20
2022-10-06T04:07:11.314Z,12.00
2022-10-06T04:09:40.028Z,14.10
2022-10-06T04:12:09.617Z,13.20
2022-10-06T04:14:39.382Z,10.90
2022-10-06T04:17:08.540Z,8.90
2022-10-06T04:19:38.467Z,10.60
2022-10-06T04:22:06.368Z,9.70
2022-10-06T04:24:35.280Z,12.10
2022-10-06T04:27:22.110Z,7.70
2022-10-06T04:29:56.415Z,10.30
2022-10-06T04:32:24.471Z,7.90
2022-10-06T04:34:52.824Z,10.10
2022-10-06T04:37:21.092Z,10.00
2022-10-06T04:39:49.891Z,13.30
2022-10-06T04:42:19.028Z,10.20
2022-10-06T04:44:47.018Z,13.00
2022-10-06T04:47:15.110Z,13.50
2022-10-06T04:49:43.025Z,6.80
2022-10-06T04:52:11.579Z,13.20
2022-10-06T04:54:40.742Z,6.90
2022-10-06T04:57:09.872Z,12.40
2022-10-06T04:59:56.239Z,11.60
2022-10-06T05:02:25.428Z,10.80
2022-10-06T05:04:57.268Z,13.80
2022-10-06T05:07:26.121Z,11.20
2022-10-06T05:09:55.867Z,13.00
2022-10-06T05:12:23.904Z,9.70
2022-10-06T05:14:52.405Z,11.30
2022-10-06T05:17:20.469Z,13.40
2022-10-06T05:19:48.932Z,8.80
2022-10-06T05:22:17.770Z,14.80
2022-10-06T05:24:46.302Z,11.10
2022-10-06T05:27:14.312Z,9.50
2022-10-06T05:29:42.498Z,12.80
2022-10-06T05:32:10.837Z,11.70
2022-10-06T05:34:39.003Z,8.10
2022-10-06T05:37:07.670Z,14.20
2022-10-06T05:39:36.258Z,10.90
2022-10-06T05:42:04.544Z,12.00
2022-10-06T05:44:32.857Z,9.60
2022-10-06T05:47:03.387Z,12.50
2022-10-06T05:49:31.461Z,13.90
2022-10-06T05:52:02.611Z,15.00
2022-10-06T05:54:33.305Z,10.90
2022-10-06T05:57:01.548Z,18.10
2022-10-06T05:59:31.105Z,14.20
2022-10-06T06:02:00.261Z,15.30
2022-10-06T06:04:37.643Z,16.30
2022-10-06T06:07:06.625Z,16.40
2022-10-06T06:09:34.705Z,13.90
2022-10-06T06:12:04.935Z,14.30
2022-10-06T06:15:11.422Z,10.10
2022-10-06T06:17:43.911Z,15.00
2022-10-06T06:20:11.920Z,16.10
2022-10-06T06:22:40.573Z,13.90
2022-10-06T06:25:09.304Z,15.00
2022-10-06T06:27:37.179Z,19.60
2022-10-06T06:30:06.623Z,18.10
2022-10-06T06:32:35.089Z,11.10
2022-10-06T06:35:04.095Z,11.10
2022-10-06T06:37:33.571Z,11.00
2022-10-06T06:40:02.111Z,18.20
2022-10-06T06:42:32.434Z,11.00
2022-10-06T06:45:39.038Z,11.10
2022-10-06T06:48:20.579Z,11.50
2022-10-06T06:50:58.248Z,12.00
2022-10-06T06:53:26.416Z,17.00
2022-10-06T06:55:58.126Z,13.30
2022-10-06T06:58:27.364Z,11.00
2022-10-06T07:01:12.217Z,12.50
2022-10-06T07:04:03.415Z,14.80
2022-10-06T07:06:38.172Z,12.90
2022-10-06T07:09:07.764Z,15.80
2022-10-06T07:11:40.153Z,14.60
2022-10-06T07:14:16.232Z,13.20
2022-10-06T07:17:04.729Z,8.70
2022-10-06T07:19:51.415Z,15.90
2022-10-06T07:22:43.092Z,11.20
2022-10-06T07:25:27.327Z,17.50
2022-10-06T07:27:57.757Z,15.00
2022-10-06T07:30:30.558Z,8.50
2022-10-06T07:33:11.370Z,14.50
2022-10-06T07:35:39.978Z,11.80
2022-10-06T07:38:08.717Z,13.30
2022-10-06T07:41:18.371Z,13.40
2022-10-06T07:43:48.071Z,15.40
2022-10-06T07:46:19.359Z,10.40
2022-10-06T07:49:10.782Z,17.60
2022-10-06T07:51:38.881Z,11.20
2022-10-06T07:54:08.929Z,13.90
2022-10-06T07:56:59.904Z,13.00
2022-10-06T07:59:27.836Z,17.10
2022-10-06T08:01:55.854Z,17.30
2022-10-06T08:04:23.890Z,13.10
2022-10-06T08:06:51.792Z,13.70
2022-10-06T08:09:22.196Z,18.90
2022-10-06T08:11:50.093Z,11.70
2022-10-06T08:14:18.017Z,15.90
2022-10-06T08:16:46.254Z,16.30
2022-10-06T08:19:14.680Z,10.30
2022-10-06T08:21:42.574Z,18.90
2022-10-06T08:24:11.057Z,13.20
2022-10-06T08:26:39.298Z,15.80
2022-10-06T08:29:07.199Z,17.60
2022-10-06T08:31:35.251Z,12.70
2022-10-06T08:34:03.383Z,12.60
2022-10-06T08:36:32.719Z,17.00
2022-10-06T08:39:01.563Z,13.70
2022-10-06T08:41:51.111Z,11.70
2022-10-06T08:44:40.771Z,16.70
2022-10-06T08:47:22.703Z,11.20
2022-10-06T08:49:57.111Z,9.60
2022-10-06T08:53:06.073Z,12.00
2022-10-06T08:55:51.518Z,13.30
2022-10-06T08:58:38.604Z,14.80
2022-10-06T09:01:16.034Z,14.40
2022-10-06T09:03:51.569Z,12.00
2022-10-06T09:06:59.950Z,14.30
2022-10-06T09:09:58.770Z,12.50
2022-10-06T09:12:47.015Z,13.10
2022-10-06T09:15:14.768Z,14.10
2022-10-06T09:17:50.828Z,14.90
2022-10-06T09:20:32.769Z,15.20
2022-10-06T09:23:06.401Z,14.00
2022-10-06T09:25:34.473Z,14.60
2022-10-06T09:28:03.502Z,13.80
2022-10-06T09:30:31.583Z,20.60
2022-10-06T09:33:03.540Z,17.10
2022-10-06T09:35:32.927Z,15.20
2022-10-06T09:38:08.162Z,20.60
2022-10-06T09:40:48.674Z,15.20
2022-10-06T09:43:25.829Z,16.30
2022-10-06T09:46:41.919Z,14.70
2022-10-06T09:49:25.871Z,14.20
2022-10-06T09:51:56.377Z,24.00
2022-10-06T09:54:24.552Z,18.20
2022-10-06T09:56:55.872Z,12.40
2022-10-06T10:04:51.368Z,19.90
2022-10-06T10:07:31.156Z,14.40
2022-10-06T10:10:19.238Z,17.50
2022-10-06T10:12:57.879Z,13.10
2022-10-06T10:15:40.597Z,17.10
2022-10-06T10:18:14.284Z,18.50
2022-10-06T10:20:58.738Z,23.30
2022-10-06T10:23:42.738Z,16.30
2022-10-06T10:26:45.408Z,15.50
2022-10-06T10:29:15.869Z,15.10
2022-10-06T10:31:52.243Z,14.40
2022-10-06T10:35:08.748Z,15.10
2022-10-06T10:37:47.772Z,14.70
2022-10-06T10:40:33.581Z,19.10
2022-10-06T10:43:31.050Z,16.90
2022-10-06T10:46:28.899Z,15.50
2022-10-06T10:49:33.766Z,17.90
2022-10-06T10:52:15.595Z,19.20
2022-10-06T10:55:03.816Z,17.50
2022-10-06T10:57:41.170Z,12.80
2022-10-06T11:00:22.931Z,16.40
2022-10-06T11:02:58.276Z,16.00
2022-10-06T11:06:01.325Z,15.00
2022-10-06T11:09:01.332Z,22.40
2022-10-06T11:11:52.223Z,14.00
2022-10-06T11:14:36.679Z,16.00
2022-10-06T11:17:44.606Z,11.90
2022-10-06T11:20:52.998Z,13.30
2022-10-06T11:23:29.980Z,13.60
2022-10-06T11:26:30.807Z,14.60
2022-10-06T11:29:32.287Z,16.30
2022-10-06T11:32:43.574Z,11.50
2022-10-06T11:35:27.066Z,11.70
2022-10-06T11:38:19.335Z,15.20
2022-10-06T11:41:32.511Z,17.20
2022-10-06T11:44:28.516Z,11.50
2022-10-06T11:47:05.252Z,13.60
2022-10-06T11:49:56.367Z,12.10
2022-10-06T11:52:24.227Z,13.70
2022-10-06T11:54:55.884Z,14.40
2022-10-06T11:57:29.386Z,12.90
2022-10-06T12:00:04.531Z,12.00
2022-10-06T12:02:35.374Z,18.00
2022-10-06T12:08:03.204Z,16.90
2022-10-06T12:10:32.560Z,13.80
2022-10-06T12:20:12.369Z,14.30
2022-10-06T12:23:00.183Z,15.00
2022-10-06T12:26:03.822Z,18.70
2022-10-06T12:29:02.423Z,12.80
2022-10-06T12:32:47.050Z,13.80
2022-10-06T12:35:34.274Z,11.10
2022-10-06T12:38:27.032Z,12.00
2022-10-06T12:40:55.758Z,10.30
2022-10-06T12:43:23.636Z,16.20
2022-10-06T12:46:22.026Z,12.90
2022-10-06T12:49:37.028Z,13.30
2022-10-06T12:52:36.643Z,12.40
2022-10-06T12:55:24.279Z,12.00
2022-10-06T12:57:53.480Z,12.90
2022-10-06T13:00:38.435Z,16.60
2022-10-06T13:03:15.527Z,12.30
2022-10-06T13:05:53.136Z,12.70
2022-10-06T13:08:28.878Z,10.80
2022-10-06T13:11:27.078Z,13.10
2022-10-06T13:14:00.892Z,14.60
2022-10-06T13:16:36.506Z,11.50
2022-10-06T13:19:04.905Z,12.30
2022-10-06T13:21:33.965Z,8.40
2022-10-06T13:24:01.922Z,11.30
2022-10-06T13:26:34.693Z,8.80
2022-10-06T13:29:02.804Z,9.60
2022-10-06T13:31:35.123Z,6.80
2022-10-06T13:34:27.288Z,8.00
2022-10-06T13:36:56.749Z,11.80
2022-10-06T13:39:31.582Z,10.40
2022-10-06T13:42:05.674Z,7.40
2022-10-06T13:45:05.929Z,8.40
2022-10-06T13:47:34.321Z,7.20
2022-10-06T13:50:07.524Z,6.30
2022-10-06T13:52:46.578Z,8.80
2022-10-06T13:55:21.609Z,11.60
2022-10-06T13:58:04.916Z,9.90
2022-10-06T14:01:00.820Z,8.00
2022-10-06T14:03:37.555Z,11.20
2022-10-06T14:06:19.254Z,11.20
2022-10-06T14:08:54.914Z,13.00
2022-10-06T14:11:31.996Z,11.50
2022-10-06T14:14:04.862Z,8.80
2022-10-06T14:16:33.398Z,12.00
2022-10-06T14:19:06.247Z,11.10
2022-10-06T14:21:39.528Z,9.40
2022-10-06T14:24:16.314Z,11.20
2022-10-06T14:26:47.066Z,14.40
2022-10-06T14:29:15.530Z,9.20
2022-10-06T14:31:45.137Z,11.40
2022-10-06T14:34:16.567Z,10.50
2022-10-06T14:36:51.720Z,5.40
2022-10-06T14:39:20.192Z,13.40
2022-10-06T14:41:48.326Z,9.60
2022-10-06T14:44:16.596Z,9.00
2022-10-06T14:46:48.992Z,11.20
2022-10-06T14:49:17.650Z,10.20
2022-10-06T14:51:46.335Z,11.40
2022-10-06T14:54:14.591Z,10.30
2022-10-06T14:56:43.103Z,13.10
2022-10-06T14:59:16.877Z,9.70
2022-10-06T15:01:46.430Z,8.60
2022-10-06T15:04:21.030Z,13.20
2022-10-06T15:07:07.627Z,9.40
2022-10-06T15:09:35.901Z,11.10
2022-10-06T15:12:04.327Z,9.30
2022-10-06T15:14:33.688Z,9.80
2022-10-06T15:17:01.588Z,9.90
2022-10-06T15:19:29.512Z,8.10
2022-10-06T15:21:57.473Z,11.20
2022-10-06T15:24:25.853Z,10.20
2022-10-06T15:27:12.447Z,8.60
2022-10-06T15:29:40.852Z,9.00
2022-10-06T15:32:09.603Z,11.30
2022-10-06T15:34:37.887Z,11.60
2022-10-06T15:37:08.496Z,6.80
2022-10-06T15:39:43.907Z,15.70
2022-10-06T15:42:12.429Z,10.70
2022-10-06T15:44:41.495Z,12.20
2022-10-06T15:47:12.299Z,7.70
2022-10-06T15:49:44.320Z,10.10
2022-10-06T15:52:13.591Z,9.80
2022-10-06T15:54:43.815Z,13.10
2022-10-06T15:57:20.297Z,6.80
2022-10-06T15:59:49.196Z,8.60
2022-10-06T16:02:27.261Z,11.70
2022-10-06T16:04:55.519Z,11.80
2022-10-06T16:07:24.344Z,6.80
2022-10-06T16:09:52.908Z,8.20
2022-10-06T16:12:24.962Z,9.40
2022-10-06T16:14:52.969Z,10.00
2022-10-06T16:17:21.369Z,11.40
2022-10-06T16:19:49.476Z,6.30
2022-10-06T16:22:19.931Z,8.70
2022-10-06T16:24:48.028Z,9.70
2022-10-06T16:27:16.182Z,10.00
2022-10-06T16:29:44.413Z,7.30
2022-10-06T16:32:12.732Z,11.10
2022-10-06T16:34:42.845Z,12.60
2022-10-06T16:37:10.992Z,18.60
2022-10-06T16:39:39.615Z,19.40
2022-10-06T16:42:07.912Z,16.30
2022-10-06T16:44:36.611Z,10.30
2022-10-06T16:47:04.955Z,16.40
2022-10-06T16:49:33.167Z,11.10
2022-10-06T16:52:01.046Z,10.10
2022-10-06T16:54:29.132Z,9.70
2022-10-06T16:56:58.485Z,7.80
2022-10-06T16:59:26.596Z,15.40
2022-10-06T17:01:54.520Z,4.90
2022-10-06T17:04:25.443Z,7.80
2022-10-06T17:06:56.927Z,8.70
2022-10-06T17:09:28.060Z,8.00
2022-10-06T17:12:02.509Z,11.20
2022-10-06T17:14:32.538Z,11.50
2022-10-06T17:17:01.589Z,9.00
2022-10-06T17:19:30.495Z,14.00
2022-10-06T17:22:00.005Z,16.40
2022-10-06T17:24:29.652Z,11.30
2022-10-06T17:26:59.010Z,15.30
2022-10-06T17:29:27.413Z,17.30
2022-10-06T17:32:00.305Z,10.30
2022-10-06T17:34:33.523Z,13.60
2022-10-06T17:37:02.786Z,17.90
2022-10-06T17:39:30.886Z,16.10
2022-10-06T17:41:59.261Z,15.80
2022-10-06T17:44:28.817Z,18.70
2022-10-06T17:47:00.505Z,15.70
2022-10-06T17:49:32.712Z,16.80
2022-10-06T17:52:01.072Z,24.50
2022-10-06T17:54:32.627Z,23.90
2022-10-06T17:57:00.716Z,34.20
2022-10-06T17:59:31.152Z,37.30
2022-10-06T18:02:03.041Z,32.50
2022-10-06T18:04:32.204Z,37.70
2022-10-06T18:07:00.452Z,32.50
2022-10-06T18:09:29.416Z,26.60
2022-10-06T18:11:59.947Z,31.70
2022-10-06T18:14:35.079Z,23.90
2022-10-06T18:17:04.121Z,25.80
2022-10-06T18:19:36.218Z,18.50
2022-10-06T18:22:11.709Z,21.70
2022-10-06T18:24:40.393Z,20.50
2022-10-06T18:27:09.016Z,24.20
2022-10-06T18:29:38.804Z,23.40
2022-10-06T18:35:57.623Z,18.90
2022-10-06T18:37:46.928Z,18.00
2022-10-06T18:40:15.425Z,13.50
2022-10-06T18:42:43.897Z,18.90
2022-10-06T18:45:33.286Z,17.30
2022-10-06T18:48:23.525Z,15.90
2022-10-06T18:51:04.005Z,20.70
2022-10-06T18:53:36.481Z,16.60
2022-10-06T18:56:07.037Z,18.60
2022-10-06T18:58:40.038Z,17.70
2022-10-06T19:01:08.701Z,16.70
2022-10-06T19:03:37.518Z,20.00
2022-10-06T19:06:07.308Z,17.50
2022-10-06T19:08:35.986Z,22.30
2022-10-06T19:11:24.170Z,21.80
2022-10-06T19:13:53.720Z,14.40
2022-10-06T19:16:21.870Z,19.60
2022-10-06T19:18:49.805Z,12.60
2022-10-06T19:21:18.204Z,18.90
2022-10-06T19:23:46.977Z,15.60
2022-10-06T19:26:15.244Z,16.70
2022-10-06T19:28:43.502Z,14.60
2022-10-06T19:31:18.686Z,16.40
2022-10-06T19:33:48.420Z,12.00
2022-10-06T19:36:17.303Z,14.40
2022-10-06T19:38:45.734Z,14.70
2022-10-06T19:41:32.756Z,19.30
2022-10-06T19:44:02.871Z,15.90
2022-10-06T19:46:30.936Z,14.50
2022-10-06T19:48:59.149Z,16.40
2022-10-06T19:51:27.269Z,14.70
2022-10-06T19:53:55.660Z,17.20
2022-10-06T19:56:25.296Z,18.80
2022-10-06T19:58:53.816Z,18.40
2022-10-06T20:01:22.006Z,12.60
2022-10-06T20:03:50.054Z,16.20
2022-10-06T20:06:19.614Z,22.90
2022-10-06T20:08:47.780Z,20.10
2022-10-06T20:11:21.687Z,16.00
2022-10-06T20:13:50.911Z,15.40
2022-10-06T20:16:20.423Z,16.00
2022-10-06T20:18:50.597Z,14.70
2022-10-06T20:21:33.893Z,22.40
2022-10-06T20:24:18.017Z,18.00
2022-10-06T20:26:50.769Z,19.70
2022-10-06T20:29:25.195Z,14.00
2022-10-06T20:31:56.641Z,18.00
2022-10-06T20:34:32.302Z,13.90
2022-10-06T20:37:02.892Z,16.90
2022-10-06T20:39:52.771Z,19.40
2022-10-06T20:42:21.791Z,19.60
2022-10-06T20:44:49.796Z,20.80
2022-10-06T20:47:17.819Z,23.40
2022-10-06T20:49:45.788Z,21.60
2022-10-06T20:52:16.393Z,23.70
2022-10-06T20:54:44.356Z,19.90
2022-10-06T20:57:13.120Z,21.70
2022-10-06T20:59:41.694Z,21.30
2022-10-06T21:02:11.218Z,22.70
2022-10-06T21:04:43.695Z,23.40
2022-10-06T21:07:12.203Z,31.60
2022-10-06T21:09:40.400Z,18.10
2022-10-06T21:12:08.498Z,19.90
2022-10-06T21:14:37.507Z,19.60
2022-10-06T21:17:05.877Z,21.10
2022-10-06T21:19:37.980Z,20.20
2022-10-06T21:22:06.169Z,20.60
2022-10-06T21:24:34.407Z,22.90
2022-10-06T21:27:03.139Z,18.30
2022-10-06T21:29:31.027Z,18.80
2022-10-06T21:31:59.741Z,19.70
2022-10-06T21:34:27.623Z,24.60
2022-10-06T21:36:55.730Z,17.90
2022-10-06T21:39:23.752Z,19.90
2022-10-06T21:41:51.657Z,18.20
2022-10-06T21:44:19.649Z,20.50
2022-10-06T21:46:53.751Z,18.00
2022-10-06T21:49:24.479Z,16.10
2022-10-06T21:51:55.515Z,19.60
2022-10-06T21:54:24.127Z,18.50
2022-10-06T21:56:55.169Z,14.00
2022-10-06T21:59:23.394Z,21.80
2022-10-06T22:01:54.537Z,18.90
2022-10-06T22:04:25.562Z,17.60
2022-10-06T22:06:57.057Z,15.50
2022-10-06T22:09:24.993Z,19.00
2022-10-06T22:11:52.962Z,15.80
2022-10-06T22:14:21.397Z,19.40
2022-10-06T22:16:49.654Z,17.80
2022-10-06T22:19:20.574Z,17.50
2022-10-06T22:21:54.966Z,19.60
2022-10-06T22:24:24.355Z,18.90
2022-10-06T22:26:53.400Z,15.70
2022-10-06T22:29:27.870Z,18.40
2022-10-06T22:31:57.829Z,18.60
2022-10-06T22:34:27.147Z,15.40
2022-10-06T22:36:55.190Z,12.80
2022-10-06T22:39:23.679Z,20.20
2022-10-06T22:41:56.040Z,18.30
2022-10-06T22:44:23.921Z,20.10
2022-10-06T22:46:51.987Z,18.60
2022-10-06T22:49:20.174Z,21.20
2022-10-06T22:51:48.025Z,16.70
2022-10-06T22:54:19.877Z,25.60
2022-10-06T22:56:48.074Z,18.20
2022-10-06T22:59:16.584Z,20.60
2022-10-06T23:01:44.665Z,19.10
2022-10-06T23:04:12.641Z,18.30
2022-10-06T23:06:40.714Z,17.00
2022-10-06T23:09:08.691Z,14.00
2022-10-06T23:11:36.647Z,15.90
2022-10-06T23:14:06.132Z,21.90
2022-10-06T23:16:34.116Z,14.60
2022-10-06T23:19:02.183Z,21.30
2022-10-06T23:21:30.232Z,16.80
2022-10-06T23:24:01.015Z,16.70
2022-10-06T23:26:31.778Z,21.10
2022-10-06T23:29:01.357Z,17.80
2022-10-06T23:31:30.092Z,20.00
2022-10-06T23:33:58.622Z,22.70
2022-10-06T23:36:26.521Z,15.00
2022-10-06T23:38:54.548Z,14.80
2022-10-06T23:41:22.511Z,16.20
2022-10-06T23:43:50.450Z,20.70
2022-10-06T23:46:18.441Z,17.90
2022-10-06T23:48:46.493Z,15.90
2022-10-06T23:51:15.743Z,20.30
2022-10-06T23:53:44.947Z,20.50
2022-10-06T23:56:14.304Z,12.00
2022-10-06T23:58:42.824Z,16.40
